sensor_id;sensor_type;location;lat;lon;timestamp;temperature;humidity
66928;DHT22;59882;45.624;11.698;2023-04-30T00:00:54;16.20;73.30
66928;DHT22;59882;45.624;11.698;2023-04-30T00:03:20;16.20;73.20
66928;DHT22;59882;45.624;11.698;2023-04-30T00:05:49;16.10;73.60
66928;DHT22;59882;45.624;11.698;2023-04-30T00:08:16;16.20;73.30
66928;DHT22;59882;45.624;11.698;2023-04-30T00:10:41;16.20;73.00
66928;DHT22;59882;45.624;11.698;2023-04-30T00:13:07;16.20;73.40
66928;DHT22;59882;45.624;11.698;2023-04-30T00:15:34;16.20;73.20
66928;DHT22;59882;45.624;11.698;2023-04-30T00:18:00;16.20;73.20
66928;DHT22;59882;45.624;11.698;2023-04-30T00:20:26;16.20;72.50
66928;DHT22;59882;45.624;11.698;2023-04-30T00:22:52;16.20;72.90
66928;DHT22;59882;45.624;11.698;2023-04-30T00:25:17;16.20;73.00
66928;DHT22;59882;45.624;11.698;2023-04-30T00:27:43;16.20;72.90
66928;DHT22;59882;45.624;11.698;2023-04-30T00:30:09;16.10;72.90
66928;DHT22;59882;45.624;11.698;2023-04-30T00:32:35;16.20;72.40
66928;DHT22;59882;45.624;11.698;2023-04-30T00:35:00;16.10;72.70
66928;DHT22;59882;45.624;11.698;2023-04-30T00:37:26;16.20;72.60
66928;DHT22;59882;45.624;11.698;2023-04-30T00:39:52;16.20;72.70
66928;DHT22;59882;45.624;11.698;2023-04-30T00:42:17;16.20;72.40
66928;DHT22;59882;45.624;11.698;2023-04-30T00:44:43;16.20;72.40
66928;DHT22;59882;45.624;11.698;2023-04-30T00:47:08;16.20;72.50
66928;DHT22;59882;45.624;11.698;2023-04-30T00:49:34;16.20;72.30
66928;DHT22;59882;45.624;11.698;2023-04-30T00:52:00;16.10;72.40
66928;DHT22;59882;45.624;11.698;2023-04-30T00:54:26;16.10;72.20
66928;DHT22;59882;45.624;11.698;2023-04-30T00:56:51;16.10;72.60
66928;DHT22;59882;45.624;11.698;2023-04-30T00:59:17;16.10;72.40
66928;DHT22;59882;45.624;11.698;2023-04-30T01:01:43;16.10;72.70
66928;DHT22;59882;45.624;11.698;2023-04-30T01:04:08;16.10;73.40
66928;DHT22;59882;45.624;11.698;2023-04-30T01:06:35;16.10;73.80
66928;DHT22;59882;45.624;11.698;2023-04-30T01:09:01;16.10;73.60
66928;DHT22;59882;45.624;11.698;2023-04-30T01:11:44;16.00;73.80
66928;DHT22;59882;45.624;11.698;2023-04-30T01:16:48;16.00;74.30
66928;DHT22;59882;45.624;11.698;2023-04-30T01:22:03;16.10;74.80
66928;DHT22;59882;45.624;11.698;2023-04-30T01:25:03;16.00;74.70
66928;DHT22;59882;45.624;11.698;2023-04-30T01:27:59;16.10;75.20
66928;DHT22;59882;45.624;11.698;2023-04-30T01:30:26;16.10;75.30
66928;DHT22;59882;45.624;11.698;2023-04-30T01:32:53;16.10;75.20
66928;DHT22;59882;45.624;11.698;2023-04-30T01:35:19;16.10;75.30
66928;DHT22;59882;45.624;11.698;2023-04-30T01:43:00;16.20;75.30
66928;DHT22;59882;45.624;11.698;2023-04-30T01:48:28;16.20;75.80
66928;DHT22;59882;45.624;11.698;2023-04-30T01:54:05;16.20;76.10
66928;DHT22;59882;45.624;11.698;2023-04-30T01:56:38;16.20;75.90
66928;DHT22;59882;45.624;11.698;2023-04-30T01:59:05;16.20;76.20
66928;DHT22;59882;45.624;11.698;2023-04-30T02:01:32;16.20;75.90
66928;DHT22;59882;45.624;11.698;2023-04-30T02:03:58;16.20;76.00
66928;DHT22;59882;45.624;11.698;2023-04-30T02:06:24;16.20;75.80
66928;DHT22;59882;45.624;11.698;2023-04-30T02:08:54;16.20;75.20
66928;DHT22;59882;45.624;11.698;2023-04-30T02:11:21;16.20;74.90
66928;DHT22;59882;45.624;11.698;2023-04-30T02:13:49;16.10;74.70
66928;DHT22;59882;45.624;11.698;2023-04-30T02:16:14;16.10;74.20
66928;DHT22;59882;45.624;11.698;2023-04-30T02:18:41;15.90;74.20
66928;DHT22;59882;45.624;11.698;2023-04-30T02:21:07;15.80;74.40
66928;DHT22;59882;45.624;11.698;2023-04-30T02:23:32;15.60;74.60
66928;DHT22;59882;45.624;11.698;2023-04-30T02:25:58;15.60;74.80
66928;DHT22;59882;45.624;11.698;2023-04-30T02:28:23;15.50;74.80
66928;DHT22;59882;45.624;11.698;2023-04-30T02:30:49;15.50;74.80
66928;DHT22;59882;45.624;11.698;2023-04-30T02:33:15;15.50;74.90
66928;DHT22;59882;45.624;11.698;2023-04-30T02:35:41;15.50;74.70
66928;DHT22;59882;45.624;11.698;2023-04-30T02:38:06;15.50;74.70
66928;DHT22;59882;45.624;11.698;2023-04-30T02:40:32;15.50;74.40
66928;DHT22;59882;45.624;11.698;2023-04-30T02:42:58;15.50;74.30
66928;DHT22;59882;45.624;11.698;2023-04-30T02:45:25;15.60;74.60
66928;DHT22;59882;45.624;11.698;2023-04-30T02:47:51;15.60;74.60
66928;DHT22;59882;45.624;11.698;2023-04-30T02:50:17;15.50;74.80
66928;DHT22;59882;45.624;11.698;2023-04-30T02:52:45;15.50;74.30
66928;DHT22;59882;45.624;11.698;2023-04-30T02:55:11;15.50;74.40
66928;DHT22;59882;45.624;11.698;2023-04-30T02:57:37;15.50;74.70
66928;DHT22;59882;45.624;11.698;2023-04-30T03:00:04;15.50;74.60
66928;DHT22;59882;45.624;11.698;2023-04-30T03:02:30;15.50;74.90
66928;DHT22;59882;45.624;11.698;2023-04-30T03:04:55;15.40;74.70
66928;DHT22;59882;45.624;11.698;2023-04-30T03:07:21;15.40;74.80
66928;DHT22;59882;45.624;11.698;2023-04-30T03:09:46;15.40;75.00
66928;DHT22;59882;45.624;11.698;2023-04-30T03:12:12;15.40;75.30
66928;DHT22;59882;45.624;11.698;2023-04-30T03:14:39;15.30;75.20
66928;DHT22;59882;45.624;11.698;2023-04-30T03:17:05;15.30;74.80
66928;DHT22;59882;45.624;11.698;2023-04-30T03:19:31;15.30;75.00
66928;DHT22;59882;45.624;11.698;2023-04-30T03:21:57;15.40;75.10
66928;DHT22;59882;45.624;11.698;2023-04-30T03:24:23;15.40;75.30
66928;DHT22;59882;45.624;11.698;2023-04-30T03:26:49;15.30;75.30
66928;DHT22;59882;45.624;11.698;2023-04-30T03:29:15;15.30;74.90
66928;DHT22;59882;45.624;11.698;2023-04-30T03:31:41;15.30;74.60
66928;DHT22;59882;45.624;11.698;2023-04-30T03:34:07;15.30;74.60
66928;DHT22;59882;45.624;11.698;2023-04-30T03:36:33;15.30;75.10
66928;DHT22;59882;45.624;11.698;2023-04-30T03:38:59;15.30;75.00
66928;DHT22;59882;45.624;11.698;2023-04-30T03:41:25;15.30;75.20
66928;DHT22;59882;45.624;11.698;2023-04-30T03:43:51;15.30;75.00
66928;DHT22;59882;45.624;11.698;2023-04-30T03:46:17;15.30;75.10
66928;DHT22;59882;45.624;11.698;2023-04-30T03:48:42;15.40;74.60
66928;DHT22;59882;45.624;11.698;2023-04-30T03:51:09;15.40;74.30
66928;DHT22;59882;45.624;11.698;2023-04-30T03:53:34;15.40;74.10
66928;DHT22;59882;45.624;11.698;2023-04-30T03:56:00;15.40;73.90
66928;DHT22;59882;45.624;11.698;2023-04-30T03:58:26;15.40;73.80
66928;DHT22;59882;45.624;11.698;2023-04-30T04:00:52;15.40;73.50
66928;DHT22;59882;45.624;11.698;2023-04-30T04:03:18;15.40;73.40
66928;DHT22;59882;45.624;11.698;2023-04-30T04:05:44;15.40;73.10
66928;DHT22;59882;45.624;11.698;2023-04-30T04:08:10;15.50;73.30
66928;DHT22;59882;45.624;11.698;2023-04-30T04:10:36;15.50;73.40
66928;DHT22;59882;45.624;11.698;2023-04-30T04:13:02;15.50;73.30
66928;DHT22;59882;45.624;11.698;2023-04-30T04:15:28;15.50;73.30
66928;DHT22;59882;45.624;11.698;2023-04-30T04:17:53;15.50;73.30
66928;DHT22;59882;45.624;11.698;2023-04-30T04:20:19;15.60;73.20
66928;DHT22;59882;45.624;11.698;2023-04-30T04:22:45;15.60;73.00
66928;DHT22;59882;45.624;11.698;2023-04-30T04:25:10;15.60;73.20
66928;DHT22;59882;45.624;11.698;2023-04-30T04:27:36;15.60;73.70
66928;DHT22;59882;45.624;11.698;2023-04-30T04:30:02;15.60;73.70
66928;DHT22;59882;45.624;11.698;2023-04-30T04:32:28;15.60;73.80
66928;DHT22;59882;45.624;11.698;2023-04-30T04:34:54;15.60;74.50
66928;DHT22;59882;45.624;11.698;2023-04-30T04:37:21;15.60;74.30
66928;DHT22;59882;45.624;11.698;2023-04-30T04:39:47;15.60;74.30
66928;DHT22;59882;45.624;11.698;2023-04-30T04:42:14;15.60;74.30
66928;DHT22;59882;45.624;11.698;2023-04-30T04:44:41;15.60;74.00
66928;DHT22;59882;45.624;11.698;2023-04-30T04:47:07;15.60;74.40
66928;DHT22;59882;45.624;11.698;2023-04-30T04:49:34;15.60;74.30
66928;DHT22;59882;45.624;11.698;2023-04-30T04:52:00;15.60;74.20
66928;DHT22;59882;45.624;11.698;2023-04-30T04:54:26;15.50;74.10
66928;DHT22;59882;45.624;11.698;2023-04-30T04:56:52;15.50;74.20
66928;DHT22;59882;45.624;11.698;2023-04-30T04:59:17;15.50;74.40
66928;DHT22;59882;45.624;11.698;2023-04-30T05:01:43;15.50;74.60
66928;DHT22;59882;45.624;11.698;2023-04-30T05:04:09;15.50;74.00
66928;DHT22;59882;45.624;11.698;2023-04-30T05:06:34;15.50;74.70
66928;DHT22;59882;45.624;11.698;2023-04-30T05:09:00;15.60;74.30
66928;DHT22;59882;45.624;11.698;2023-04-30T05:11:27;15.60;74.90
66928;DHT22;59882;45.624;11.698;2023-04-30T05:13:53;15.60;75.10
66928;DHT22;59882;45.624;11.698;2023-04-30T05:16:18;15.60;75.10
66928;DHT22;59882;45.624;11.698;2023-04-30T05:18:44;15.50;74.90
66928;DHT22;59882;45.624;11.698;2023-04-30T05:21:09;15.60;75.20
66928;DHT22;59882;45.624;11.698;2023-04-30T05:23:35;15.50;74.90
66928;DHT22;59882;45.624;11.698;2023-04-30T05:26:01;15.60;75.40
66928;DHT22;59882;45.624;11.698;2023-04-30T05:28:26;15.60;75.20
66928;DHT22;59882;45.624;11.698;2023-04-30T05:30:52;15.60;74.80
66928;DHT22;59882;45.624;11.698;2023-04-30T05:33:17;15.70;75.00
66928;DHT22;59882;45.624;11.698;2023-04-30T05:35:43;15.80;75.10
66928;DHT22;59882;45.624;11.698;2023-04-30T05:38:09;15.80;75.00
66928;DHT22;59882;45.624;11.698;2023-04-30T05:40:34;15.90;75.00
66928;DHT22;59882;45.624;11.698;2023-04-30T05:43:00;15.80;74.70
66928;DHT22;59882;45.624;11.698;2023-04-30T05:45:26;15.90;74.90
66928;DHT22;59882;45.624;11.698;2023-04-30T05:47:52;15.90;75.00
66928;DHT22;59882;45.624;11.698;2023-04-30T05:50:17;16.00;74.40
66928;DHT22;59882;45.624;11.698;2023-04-30T05:52:43;16.00;73.70
66928;DHT22;59882;45.624;11.698;2023-04-30T05:55:09;16.00;73.90
66928;DHT22;59882;45.624;11.698;2023-04-30T05:57:35;16.00;73.60
66928;DHT22;59882;45.624;11.698;2023-04-30T06:00:01;16.10;73.50
66928;DHT22;59882;45.624;11.698;2023-04-30T06:02:27;16.10;73.40
66928;DHT22;59882;45.624;11.698;2023-04-30T06:04:52;16.10;73.40
66928;DHT22;59882;45.624;11.698;2023-04-30T06:07:18;16.20;73.30
66928;DHT22;59882;45.624;11.698;2023-04-30T06:09:44;16.20;72.80
66928;DHT22;59882;45.624;11.698;2023-04-30T06:12:10;16.30;72.10
66928;DHT22;59882;45.624;11.698;2023-04-30T06:14:35;16.20;71.60
66928;DHT22;59882;45.624;11.698;2023-04-30T06:17:01;16.20;71.70
66928;DHT22;59882;45.624;11.698;2023-04-30T06:19:27;16.30;72.70
66928;DHT22;59882;45.624;11.698;2023-04-30T06:21:53;16.20;73.90
66928;DHT22;59882;45.624;11.698;2023-04-30T06:24:18;16.20;73.80
66928;DHT22;59882;45.624;11.698;2023-04-30T06:26:44;16.20;74.80
66928;DHT22;59882;45.624;11.698;2023-04-30T06:29:10;16.20;75.30
66928;DHT22;59882;45.624;11.698;2023-04-30T06:31:35;16.20;75.40
66928;DHT22;59882;45.624;11.698;2023-04-30T06:34:01;16.10;75.10
66928;DHT22;59882;45.624;11.698;2023-04-30T06:36:26;16.10;74.80
66928;DHT22;59882;45.624;11.698;2023-04-30T06:38:52;16.00;75.40
66928;DHT22;59882;45.624;11.698;2023-04-30T06:41:18;16.00;75.00
66928;DHT22;59882;45.624;11.698;2023-04-30T06:43:43;16.00;75.40
66928;DHT22;59882;45.624;11.698;2023-04-30T06:46:09;16.00;75.80
66928;DHT22;59882;45.624;11.698;2023-04-30T06:48:35;16.00;75.40
66928;DHT22;59882;45.624;11.698;2023-04-30T06:51:00;16.00;76.00
66928;DHT22;59882;45.624;11.698;2023-04-30T06:53:26;16.00;76.60
66928;DHT22;59882;45.624;11.698;2023-04-30T06:55:52;16.00;76.30
66928;DHT22;59882;45.624;11.698;2023-04-30T06:58:17;16.00;76.30
66928;DHT22;59882;45.624;11.698;2023-04-30T07:00:44;16.00;76.40
66928;DHT22;59882;45.624;11.698;2023-04-30T07:03:10;16.00;76.00
66928;DHT22;59882;45.624;11.698;2023-04-30T07:05:35;16.10;76.60
66928;DHT22;59882;45.624;11.698;2023-04-30T07:08:02;16.10;76.10
66928;DHT22;59882;45.624;11.698;2023-04-30T07:10:28;16.00;76.60
66928;DHT22;59882;45.624;11.698;2023-04-30T07:13:14;16.00;76.20
66928;DHT22;59882;45.624;11.698;2023-04-30T07:15:40;16.10;76.80
66928;DHT22;59882;45.624;11.698;2023-04-30T07:18:06;16.10;76.70
66928;DHT22;59882;45.624;11.698;2023-04-30T07:20:33;16.10;76.60
66928;DHT22;59882;45.624;11.698;2023-04-30T07:22:58;16.20;76.40
66928;DHT22;59882;45.624;11.698;2023-04-30T07:25:24;16.20;76.30
66928;DHT22;59882;45.624;11.698;2023-04-30T07:27:50;16.20;76.00
66928;DHT22;59882;45.624;11.698;2023-04-30T07:30:17;16.20;75.70
66928;DHT22;59882;45.624;11.698;2023-04-30T07:32:43;16.30;75.30
66928;DHT22;59882;45.624;11.698;2023-04-30T07:35:09;16.20;75.00
66928;DHT22;59882;45.624;11.698;2023-04-30T07:37:35;16.30;75.00
66928;DHT22;59882;45.624;11.698;2023-04-30T07:40:00;16.30;75.40
66928;DHT22;59882;45.624;11.698;2023-04-30T07:42:26;16.30;75.20
66928;DHT22;59882;45.624;11.698;2023-04-30T07:44:51;16.40;74.90
66928;DHT22;59882;45.624;11.698;2023-04-30T07:47:17;16.40;74.80
66928;DHT22;59882;45.624;11.698;2023-04-30T07:49:45;16.40;74.80
66928;DHT22;59882;45.624;11.698;2023-04-30T07:52:11;16.50;74.90
66928;DHT22;59882;45.624;11.698;2023-04-30T07:54:37;16.60;74.90
66928;DHT22;59882;45.624;11.698;2023-04-30T07:57:04;16.60;75.00
66928;DHT22;59882;45.624;11.698;2023-04-30T07:59:31;16.60;75.20
66928;DHT22;59882;45.624;11.698;2023-04-30T08:01:56;16.70;74.90
66928;DHT22;59882;45.624;11.698;2023-04-30T08:04:22;16.80;75.20
66928;DHT22;59882;45.624;11.698;2023-04-30T08:06:48;16.80;75.20
66928;DHT22;59882;45.624;11.698;2023-04-30T08:09:14;16.90;75.10
66928;DHT22;59882;45.624;11.698;2023-04-30T08:11:40;16.90;74.90
66928;DHT22;59882;45.624;11.698;2023-04-30T08:14:05;16.90;74.60
66928;DHT22;59882;45.624;11.698;2023-04-30T08:16:31;16.90;73.90
66928;DHT22;59882;45.624;11.698;2023-04-30T08:18:57;17.00;73.90
66928;DHT22;59882;45.624;11.698;2023-04-30T08:21:23;17.00;74.20
66928;DHT22;59882;45.624;11.698;2023-04-30T08:23:49;17.00;74.50
66928;DHT22;59882;45.624;11.698;2023-04-30T08:26:16;17.00;74.70
66928;DHT22;59882;45.624;11.698;2023-04-30T08:28:41;17.00;75.10
66928;DHT22;59882;45.624;11.698;2023-04-30T08:31:07;17.00;75.90
66928;DHT22;59882;45.624;11.698;2023-04-30T08:33:32;17.00;76.20
66928;DHT22;59882;45.624;11.698;2023-04-30T08:35:58;17.10;75.60
66928;DHT22;59882;45.624;11.698;2023-04-30T08:38:24;17.10;75.90
66928;DHT22;59882;45.624;11.698;2023-04-30T08:41:01;17.10;76.10
66928;DHT22;59882;45.624;11.698;2023-04-30T08:43:29;17.20;76.50
66928;DHT22;59882;45.624;11.698;2023-04-30T08:45:55;17.20;76.40
66928;DHT22;59882;45.624;11.698;2023-04-30T08:48:22;17.30;76.20
66928;DHT22;59882;45.624;11.698;2023-04-30T08:50:49;17.30;76.10
66928;DHT22;59882;45.624;11.698;2023-04-30T08:53:15;17.40;75.80
66928;DHT22;59882;45.624;11.698;2023-04-30T08:55:42;17.50;76.00
66928;DHT22;59882;45.624;11.698;2023-04-30T08:58:08;17.50;75.50
66928;DHT22;59882;45.624;11.698;2023-04-30T09:00:37;17.60;75.00
66928;DHT22;59882;45.624;11.698;2023-04-30T09:03:03;17.70;74.80
66928;DHT22;59882;45.624;11.698;2023-04-30T09:05:29;17.70;74.40
66928;DHT22;59882;45.624;11.698;2023-04-30T09:07:55;17.70;74.70
66928;DHT22;59882;45.624;11.698;2023-04-30T09:10:21;17.80;75.50
66928;DHT22;59882;45.624;11.698;2023-04-30T09:13:05;17.80;74.10
66928;DHT22;59882;45.624;11.698;2023-04-30T09:15:32;17.80;74.80
66928;DHT22;59882;45.624;11.698;2023-04-30T09:18:14;17.80;74.50
66928;DHT22;59882;45.624;11.698;2023-04-30T09:20:58;17.70;75.40
66928;DHT22;59882;45.624;11.698;2023-04-30T09:23:26;17.70;75.30
66928;DHT22;59882;45.624;11.698;2023-04-30T09:25:52;17.70;75.30
66928;DHT22;59882;45.624;11.698;2023-04-30T09:28:18;17.70;75.90
66928;DHT22;59882;45.624;11.698;2023-04-30T09:30:49;17.70;76.00
66928;DHT22;59882;45.624;11.698;2023-04-30T09:33:15;17.80;75.90
66928;DHT22;59882;45.624;11.698;2023-04-30T09:35:40;17.80;76.00
66928;DHT22;59882;45.624;11.698;2023-04-30T09:38:07;17.80;77.10
66928;DHT22;59882;45.624;11.698;2023-04-30T09:40:40;17.80;77.50
66928;DHT22;59882;45.624;11.698;2023-04-30T09:43:07;17.80;77.90
66928;DHT22;59882;45.624;11.698;2023-04-30T09:45:40;17.70;78.10
66928;DHT22;59882;45.624;11.698;2023-04-30T09:48:08;17.60;77.70
66928;DHT22;59882;45.624;11.698;2023-04-30T09:50:40;17.60;78.40
66928;DHT22;59882;45.624;11.698;2023-04-30T09:53:07;17.60;77.90
66928;DHT22;59882;45.624;11.698;2023-04-30T09:55:35;17.70;78.60
66928;DHT22;59882;45.624;11.698;2023-04-30T09:58:08;17.70;79.10
66928;DHT22;59882;45.624;11.698;2023-04-30T10:00:35;17.70;79.20
66928;DHT22;59882;45.624;11.698;2023-04-30T10:03:21;17.70;79.20
66928;DHT22;59882;45.624;11.698;2023-04-30T10:05:50;17.70;78.90
66928;DHT22;59882;45.624;11.698;2023-04-30T10:08:25;17.70;78.60
66928;DHT22;59882;45.624;11.698;2023-04-30T10:10:57;17.70;78.90
66928;DHT22;59882;45.624;11.698;2023-04-30T10:13:25;17.70;78.50
66928;DHT22;59882;45.624;11.698;2023-04-30T10:15:57;17.70;78.60
66928;DHT22;59882;45.624;11.698;2023-04-30T10:18:38;17.80;78.30
66928;DHT22;59882;45.624;11.698;2023-04-30T10:21:06;17.80;77.50
66928;DHT22;59882;45.624;11.698;2023-04-30T10:23:39;17.80;77.80
66928;DHT22;59882;45.624;11.698;2023-04-30T10:26:10;17.90;78.00
66928;DHT22;59882;45.624;11.698;2023-04-30T10:28:37;17.90;77.80
66928;DHT22;59882;45.624;11.698;2023-04-30T10:31:04;17.90;77.80
66928;DHT22;59882;45.624;11.698;2023-04-30T10:33:47;17.90;78.20
66928;DHT22;59882;45.624;11.698;2023-04-30T10:36:32;17.90;77.80
66928;DHT22;59882;45.624;11.698;2023-04-30T10:39:00;17.90;77.30
66928;DHT22;59882;45.624;11.698;2023-04-30T10:41:26;17.90;77.50
66928;DHT22;59882;45.624;11.698;2023-04-30T10:44:01;17.90;77.40
66928;DHT22;59882;45.624;11.698;2023-04-30T10:46:27;17.80;77.80
66928;DHT22;59882;45.624;11.698;2023-04-30T10:48:53;17.90;77.60
66928;DHT22;59882;45.624;11.698;2023-04-30T10:51:20;17.80;78.40
66928;DHT22;59882;45.624;11.698;2023-04-30T10:53:49;17.80;78.40
66928;DHT22;59882;45.624;11.698;2023-04-30T10:56:28;17.80;78.50
66928;DHT22;59882;45.624;11.698;2023-04-30T10:58:58;17.80;79.30
66928;DHT22;59882;45.624;11.698;2023-04-30T11:01:25;17.80;78.40
66928;DHT22;59882;45.624;11.698;2023-04-30T11:04:06;17.90;78.40
66928;DHT22;59882;45.624;11.698;2023-04-30T11:06:54;17.90;77.40
66928;DHT22;59882;45.624;11.698;2023-04-30T11:09:42;17.90;77.30
66928;DHT22;59882;45.624;11.698;2023-04-30T11:12:20;17.90;77.00
66928;DHT22;59882;45.624;11.698;2023-04-30T11:14:59;17.90;76.90
66928;DHT22;59882;45.624;11.698;2023-04-30T11:17:26;17.90;76.60
66928;DHT22;59882;45.624;11.698;2023-04-30T11:19:53;17.90;77.00
66928;DHT22;59882;45.624;11.698;2023-04-30T11:22:21;18.00;77.60
66928;DHT22;59882;45.624;11.698;2023-04-30T11:25:10;18.10;77.10
66928;DHT22;59882;45.624;11.698;2023-04-30T11:27:40;18.10;77.80
66928;DHT22;59882;45.624;11.698;2023-04-30T11:30:14;18.30;77.20
66928;DHT22;59882;45.624;11.698;2023-04-30T11:32:43;18.30;76.50
66928;DHT22;59882;45.624;11.698;2023-04-30T11:35:10;18.40;76.00
66928;DHT22;59882;45.624;11.698;2023-04-30T11:37:38;18.40;75.80
66928;DHT22;59882;45.624;11.698;2023-04-30T11:40:06;18.50;75.00
66928;DHT22;59882;45.624;11.698;2023-04-30T11:42:33;18.60;75.10
66928;DHT22;59882;45.624;11.698;2023-04-30T11:45:07;18.60;74.20
66928;DHT22;59882;45.624;11.698;2023-04-30T11:47:39;18.70;73.30
66928;DHT22;59882;45.624;11.698;2023-04-30T11:50:07;18.70;73.70
66928;DHT22;59882;45.624;11.698;2023-04-30T11:52:33;18.80;73.20
66928;DHT22;59882;45.624;11.698;2023-04-30T11:54:58;18.90;72.80
66928;DHT22;59882;45.624;11.698;2023-04-30T11:57:25;18.90;72.80
66928;DHT22;59882;45.624;11.698;2023-04-30T11:59:50;19.00;72.60
66928;DHT22;59882;45.624;11.698;2023-04-30T12:02:16;19.10;72.90
66928;DHT22;59882;45.624;11.698;2023-04-30T12:04:43;19.20;71.10
66928;DHT22;59882;45.624;11.698;2023-04-30T12:07:08;19.20;71.10
66928;DHT22;59882;45.624;11.698;2023-04-30T12:09:54;19.30;71.70
66928;DHT22;59882;45.624;11.698;2023-04-30T12:12:27;19.40;72.20
66928;DHT22;59882;45.624;11.698;2023-04-30T12:14:53;19.40;71.10
66928;DHT22;59882;45.624;11.698;2023-04-30T12:17:34;19.40;71.10
66928;DHT22;59882;45.624;11.698;2023-04-30T12:20:00;19.40;71.40
66928;DHT22;59882;45.624;11.698;2023-04-30T12:22:26;19.40;71.20
66928;DHT22;59882;45.624;11.698;2023-04-30T12:24:53;19.40;71.40
66928;DHT22;59882;45.624;11.698;2023-04-30T12:27:20;19.40;71.40
66928;DHT22;59882;45.624;11.698;2023-04-30T12:29:46;19.40;71.40
66928;DHT22;59882;45.624;11.698;2023-04-30T12:32:16;19.40;71.10
66928;DHT22;59882;45.624;11.698;2023-04-30T12:34:43;19.30;72.30
66928;DHT22;59882;45.624;11.698;2023-04-30T12:37:09;19.40;71.70
66928;DHT22;59882;45.624;11.698;2023-04-30T12:39:35;19.40;71.50
66928;DHT22;59882;45.624;11.698;2023-04-30T12:42:02;19.40;72.10
66928;DHT22;59882;45.624;11.698;2023-04-30T12:44:28;19.40;72.70
66928;DHT22;59882;45.624;11.698;2023-04-30T12:46:57;19.40;72.40
66928;DHT22;59882;45.624;11.698;2023-04-30T12:49:26;19.40;71.90
66928;DHT22;59882;45.624;11.698;2023-04-30T12:54:29;19.40;70.30
66928;DHT22;59882;45.624;11.698;2023-04-30T12:57:07;19.40;71.20
66928;DHT22;59882;45.624;11.698;2023-04-30T13:02:13;19.40;69.90
66928;DHT22;59882;45.624;11.698;2023-04-30T13:04:42;19.40;69.20
66928;DHT22;59882;45.624;11.698;2023-04-30T13:07:09;19.40;70.70
66928;DHT22;59882;45.624;11.698;2023-04-30T13:09:36;19.50;70.20
66928;DHT22;59882;45.624;11.698;2023-04-30T13:12:03;19.50;69.70
66928;DHT22;59882;45.624;11.698;2023-04-30T13:14:29;19.60;68.30
66928;DHT22;59882;45.624;11.698;2023-04-30T13:16:55;19.60;69.60
66928;DHT22;59882;45.624;11.698;2023-04-30T13:19:21;19.70;68.10
66928;DHT22;59882;45.624;11.698;2023-04-30T13:21:46;19.70;67.10
66928;DHT22;59882;45.624;11.698;2023-04-30T13:24:12;19.70;67.70
66928;DHT22;59882;45.624;11.698;2023-04-30T13:26:38;19.80;68.10
66928;DHT22;59882;45.624;11.698;2023-04-30T13:29:05;19.80;68.20
66928;DHT22;59882;45.624;11.698;2023-04-30T13:31:31;19.70;67.60
66928;DHT22;59882;45.624;11.698;2023-04-30T13:33:56;19.70;67.70
66928;DHT22;59882;45.624;11.698;2023-04-30T13:36:22;19.70;68.20
66928;DHT22;59882;45.624;11.698;2023-04-30T13:38:47;19.70;68.30
66928;DHT22;59882;45.624;11.698;2023-04-30T13:41:13;19.70;68.60
66928;DHT22;59882;45.624;11.698;2023-04-30T13:43:39;19.80;68.20
66928;DHT22;59882;45.624;11.698;2023-04-30T13:46:07;19.80;68.10
66928;DHT22;59882;45.624;11.698;2023-04-30T13:48:32;19.90;67.70
66928;DHT22;59882;45.624;11.698;2023-04-30T13:50:59;19.90;66.40
66928;DHT22;59882;45.624;11.698;2023-04-30T13:53:25;19.90;65.50
66928;DHT22;59882;45.624;11.698;2023-04-30T13:55:51;19.90;65.70
66928;DHT22;59882;45.624;11.698;2023-04-30T13:58:17;20.00;66.30
66928;DHT22;59882;45.624;11.698;2023-04-30T14:00:43;20.00;64.70
66928;DHT22;59882;45.624;11.698;2023-04-30T14:03:09;20.00;64.50
66928;DHT22;59882;45.624;11.698;2023-04-30T14:05:35;20.00;64.50
66928;DHT22;59882;45.624;11.698;2023-04-30T14:08:01;20.10;64.40
66928;DHT22;59882;45.624;11.698;2023-04-30T14:10:26;20.10;64.80
66928;DHT22;59882;45.624;11.698;2023-04-30T14:12:52;20.20;65.10
66928;DHT22;59882;45.624;11.698;2023-04-30T14:15:18;20.30;65.30
66928;DHT22;59882;45.624;11.698;2023-04-30T14:17:44;20.30;65.40
66928;DHT22;59882;45.624;11.698;2023-04-30T14:20:10;20.40;64.50
66928;DHT22;59882;45.624;11.698;2023-04-30T14:22:36;20.40;64.70
66928;DHT22;59882;45.624;11.698;2023-04-30T14:25:03;20.40;65.10
66928;DHT22;59882;45.624;11.698;2023-04-30T14:27:29;20.40;65.20
66928;DHT22;59882;45.624;11.698;2023-04-30T14:29:55;20.40;65.60
66928;DHT22;59882;45.624;11.698;2023-04-30T14:32:23;20.50;65.10
66928;DHT22;59882;45.624;11.698;2023-04-30T14:34:49;20.50;64.20
66928;DHT22;59882;45.624;11.698;2023-04-30T14:37:15;20.50;62.80
66928;DHT22;59882;45.624;11.698;2023-04-30T14:39:41;20.60;62.40
66928;DHT22;59882;45.624;11.698;2023-04-30T14:42:07;20.60;62.50
66928;DHT22;59882;45.624;11.698;2023-04-30T14:44:33;20.50;62.70
66928;DHT22;59882;45.624;11.698;2023-04-30T14:46:59;20.40;62.70
66928;DHT22;59882;45.624;11.698;2023-04-30T14:49:26;20.40;62.70
66928;DHT22;59882;45.624;11.698;2023-04-30T14:51:51;20.40;62.90
66928;DHT22;59882;45.624;11.698;2023-04-30T14:54:17;20.40;62.90
66928;DHT22;59882;45.624;11.698;2023-04-30T14:56:43;20.40;62.80
66928;DHT22;59882;45.624;11.698;2023-04-30T14:59:10;20.40;63.50
66928;DHT22;59882;45.624;11.698;2023-04-30T15:01:36;20.30;63.50
66928;DHT22;59882;45.624;11.698;2023-04-30T15:04:02;20.30;64.30
66928;DHT22;59882;45.624;11.698;2023-04-30T15:06:29;20.20;64.30
66928;DHT22;59882;45.624;11.698;2023-04-30T15:08:55;20.20;64.70
66928;DHT22;59882;45.624;11.698;2023-04-30T15:11:20;20.10;64.90
66928;DHT22;59882;45.624;11.698;2023-04-30T15:13:46;20.10;64.80
66928;DHT22;59882;45.624;11.698;2023-04-30T15:16:12;20.00;64.50
66928;DHT22;59882;45.624;11.698;2023-04-30T15:18:38;20.00;64.40
66928;DHT22;59882;45.624;11.698;2023-04-30T15:21:04;20.00;64.10
66928;DHT22;59882;45.624;11.698;2023-04-30T15:23:30;20.00;64.00
66928;DHT22;59882;45.624;11.698;2023-04-30T15:25:56;20.00;64.10
66928;DHT22;59882;45.624;11.698;2023-04-30T15:28:22;20.00;64.20
66928;DHT22;59882;45.624;11.698;2023-04-30T15:30:49;20.00;64.30
66928;DHT22;59882;45.624;11.698;2023-04-30T15:33:16;20.00;64.20
66928;DHT22;59882;45.624;11.698;2023-04-30T15:35:43;20.00;64.00
66928;DHT22;59882;45.624;11.698;2023-04-30T15:38:09;19.90;64.30